Time;durP1;ratioP1;P1;durP2;ratioP2;P2;SDS_P1;SDS_P2;PMS_P1;PMS_P2;Temp;Humidity;BMP_temperature;BMP_pressure;BME280_temperature;BME280_humidity;BME280_pressure;Samples;Min_cycle;Max_cycle;Signal;HPM_P1;HPM_P2
2024/01/27 00:02:01;;;;;;;10.80;7.10;;;;;;;1.99;90.67;98980.91;79339;1298;3013030;-66
2024/01/27 00:04:27;;;;;;;12.70;6.90;;;;;;;1.94;91.75;98978.50;79514;1298;3011498;-73
2024/01/27 00:06:55;;;;;;;10.10;6.20;;;;;;;1.75;92.16;98982.88;78291;1297;3053140;-64
2024/01/27 00:09:22;;;;;;;10.70;7.10;;;;;;;1.58;93.13;98984.80;79235;1298;3012660;-71
2024/01/27 00:11:49;;;;;;;7.70;4.90;;;;;;;1.59;93.69;98988.92;79281;1297;3011773;-68
2024/01/27 00:14:16;;;;;;;8.50;4.90;;;;;;;2.01;92.87;98987.57;78136;1298;3025376;-70
2024/01/27 00:16:43;;;;;;;9.20;5.40;;;;;;;2.47;91.01;98990.67;79459;1298;3018321;-66
2024/01/27 00:19:10;;;;;;;9.50;5.90;;;;;;;2.42;89.75;98987.38;79393;1300;3011543;-67
2024/01/27 00:21:37;;;;;;;8.50;5.80;;;;;;;2.17;90.32;98987.04;78156;1301;3025478;-70
2024/01/27 00:24:04;;;;;;;9.50;5.30;;;;;;;1.90;91.38;98989.31;79518;1298;3013311;-67
2024/01/27 00:26:31;;;;;;;10.20;6.50;;;;;;;1.57;92.70;98982.23;79342;1300;3011705;-67
2024/01/27 00:28:59;;;;;;;9.50;5.70;;;;;;;1.47;93.39;98984.13;78091;1297;3026206;-71
2024/01/27 00:31:26;;;;;;;9.10;5.90;;;;;;;1.30;93.89;98990.67;79392;1298;3013226;-69
2024/01/27 00:33:53;;;;;;;13.10;5.30;;;;;;;1.35;94.75;98991.05;79324;1299;3011710;-68
2024/01/27 00:36:20;;;;;;;6.90;4.80;;;;;;;1.96;93.83;98993.09;78156;1300;3025776;-68
2024/01/27 00:38:47;;;;;;;9.40;5.90;;;;;;;2.52;90.93;98994.48;79540;1301;3013128;-71
2024/01/27 00:41:17;;;;;;;9.00;5.70;;;;;;;2.44;89.68;98994.77;79405;1300;3011913;-71
2024/01/27 00:43:45;;;;;;;10.70;4.80;;;;;;;2.41;89.49;98992.26;78122;1298;3057144;-65
2024/01/27 00:46:12;;;;;;;6.70;4.50;;;;;;;2.17;89.54;98997.58;79452;1300;3018425;-70
2024/01/27 00:48:38;;;;;;;9.80;4.90;;;;;;;2.01;90.03;98995.00;79387;1301;3011403;-69
2024/01/27 00:51:06;;;;;;;7.50;5.20;;;;;;;1.81;90.46;98996.33;78123;1301;3028852;-65
2024/01/27 00:53:33;;;;;;;9.90;6.20;;;;;;;1.63;91.59;98997.42;79537;1300;3013016;-67
2024/01/27 00:56:01;;;;;;;7.90;4.30;;;;;;;1.56;92.31;98992.31;79109;1298;3015807;-67
2024/01/27 00:58:29;;;;;;;7.40;4.70;;;;;;;2.01;92.06;99000.35;78056;1301;3056665;-68
2024/01/27 01:00:56;;;;;;;6.90;4.30;;;;;;;2.37;89.69;99000.36;79425;1301;3013298;-67
2024/01/27 01:03:22;;;;;;;9.40;4.40;;;;;;;2.46;89.11;99000.24;79248;1297;3012879;-68
2024/01/27 01:05:50;;;;;;;7.40;4.90;;;;;;;2.15;89.07;99003.51;77937;1300;3028846;-67
2024/01/27 01:08:17;;;;;;;7.60;4.70;;;;;;;1.98;89.80;99001.31;79410;1297;3013015;-68
2024/01/27 01:10:44;;;;;;;8.40;5.60;;;;;;;1.73;90.68;99004.37;79173;1300;3011780;-70
2024/01/27 01:13:11;;;;;;;9.00;5.00;;;;;;;1.67;90.96;99001.10;78044;1300;3028003;-67
2024/01/27 01:15:39;;;;;;;9.80;5.80;;;;;;;1.55;91.29;99008.71;79394;1298;3013486;-65
2024/01/27 01:18:06;;;;;;;6.30;3.60;;;;;;;1.46;92.44;99007.30;79384;1298;3011576;-74
2024/01/27 01:20:34;;;;;;;7.30;4.70;;;;;;;1.96;91.89;99007.94;78271;1301;3052703;-74
2024/01/27 01:23:01;;;;;;;8.80;4.90;;;;;;;2.53;89.00;99003.11;79502;1301;3012967;-67
2024/01/27 01:25:27;;;;;;;8.90;4.90;;;;;;;2.40;87.94;99006.46;79440;1301;3011758;-68
2024/01/27 01:27:55;;;;;;;8.30;4.70;;;;;;;2.10;88.40;99005.92;78139;1297;3025592;-70
2024/01/27 01:30:22;;;;;;;9.20;5.10;;;;;;;1.80;89.61;99007.09;79343;1298;3013651;-69
2024/01/27 01:32:50;;;;;;;11.70;6.30;;;;;;;1.72;90.28;99003.17;79428;1298;3013243;-71
2024/01/27 01:35:18;;;;;;;9.80;6.10;;;;;;;1.53;90.56;99010.00;78174;1300;3052881;-72
2024/01/27 01:37:44;;;;;;;15.10;8.60;;;;;;;1.51;90.59;99008.68;79343;1297;3012845;-68
2024/01/27 01:40:12;;;;;;;14.60;7.70;;;;;;;1.30;91.59;99011.04;79396;1301;3011535;-70
2024/01/27 01:42:41;;;;;;;15.10;8.00;;;;;;;1.85;91.03;99010.53;78270;1299;3056542;-71
2024/01/27 01:45:10;;;;;;;18.50;9.90;;;;;;;2.17;88.97;99014.52;79258;1298;3012698;-69
2024/01/27 01:47:38;;;;;;;23.90;12.40;;;;;;;2.32;87.83;99013.64;78523;1302;3011613;-70
2024/01/27 01:50:06;;;;;;;26.90;13.70;;;;;;;2.08;87.69;99012.22;79245;1300;3013278;-73
2024/01/27 01:52:33;;;;;;;31.60;14.80;;;;;;;1.85;88.38;99004.14;79493;1298;3011467;-68
2024/01/27 01:55:01;;;;;;;34.40;16.50;;;;;;;1.72;88.75;99009.23;77844;1298;3069294;-69
2024/01/27 01:57:27;;;;;;;34.30;16.00;;;;;;;1.52;89.28;99011.23;79776;1297;3012933;-67
2024/01/27 01:59:54;;;;;;;31.30;15.30;;;;;;;1.33;89.83;99010.09;79219;1300;3011449;-64
2024/01/27 02:02:22;;;;;;;29.40;14.70;;;;;;;1.10;90.79;99014.38;77988;1298;3025599;-68
2024/01/27 02:04:49;;;;;;;20.40;10.90;;;;;;;1.08;91.54;99011.52;79324;1301;3019050;-70
2024/01/27 02:07:15;;;;;;;20.50;9.50;;;;;;;1.72;90.62;99011.13;79380;1301;3011884;-70
2024/01/27 02:09:44;;;;;;;20.90;10.10;;;;;;;2.35;87.69;99014.09;78276;1298;3026217;-72
2024/01/27 02:12:11;;;;;;;27.00;12.70;;;;;;;2.39;86.22;99008.42;79434;1298;3013094;-73
2024/01/27 02:14:38;;;;;;;36.40;17.40;;;;;;;2.02;86.48;99009.83;79392;1299;3011436;-74
2024/01/27 02:17:06;;;;;;;34.90;17.80;;;;;;;1.87;87.09;99010.83;78043;1298;3052139;-65
2024/01/27 02:19:33;;;;;;;44.90;22.10;;;;;;;1.68;87.37;99012.98;79342;1301;3018501;-68
2024/01/27 02:21:59;;;;;;;35.00;17.00;;;;;;;1.64;87.79;99014.14;79357;1300;3013404;-69
2024/01/27 02:24:28;;;;;;;31.80;15.80;;;;;;;1.47;87.76;99021.73;78213;1298;3026698;-68
2024/01/27 02:26:54;;;;;;;40.70;18.00;;;;;;;1.29;88.21;99024.70;79339;1298;3013743;-71
2024/01/27 02:29:21;;;;;;;28.10;12.90;;;;;;;1.18;89.18;99024.33;79447;1297;3011578;-77
2024/01/27 02:31:49;;;;;;;23.60;11.10;;;;;;;1.75;88.85;99022.61;77979;1301;3053063;-68
2024/01/27 02:34:16;;;;;;;19.80;10.10;;;;;;;2.10;86.71;99020.11;79391;1311;3021196;-72
2024/01/27 02:36:43;;;;;;;16.90;9.30;;;;;;;2.32;85.55;99021.61;79433;1300;3011867;-70
2024/01/27 02:39:11;;;;;;;15.80;9.10;;;;;;;2.07;85.68;99023.48;78040;1299;3067958;-68
2024/01/27 02:41:39;;;;;;;19.80;10.80;;;;;;;1.91;85.88;99026.41;79410;1301;3019123;-68
2024/01/27 02:44:05;;;;;;;27.20;12.50;;;;;;;1.71;85.92;99024.45;79499;1297;3011401;-69
2024/01/27 02:46:33;;;;;;;20.70;10.40;;;;;;;1.61;85.98;99026.50;78212;1301;3027879;-65
2024/01/27 02:49:00;;;;;;;29.80;13.90;;;;;;;1.41;86.30;99031.59;79237;1301;3011304;-72
2024/01/27 02:51:26;;;;;;;33.20;16.00;;;;;;;1.37;86.28;99032.40;79406;1301;3011692;-68
2024/01/27 02:53:54;;;;;;;20.00;9.60;;;;;;;1.26;87.16;99028.43;78203;1298;3026516;-70
2024/01/27 02:56:22;;;;;;;23.00;9.60;;;;;;;1.71;86.83;99025.48;79229;1298;3013085;-69
2024/01/27 02:58:49;;;;;;;20.10;9.70;;;;;;;2.22;84.78;99026.27;79192;1297;3012053;-68
2024/01/27 03:01:17;;;;;;;21.30;9.90;;;;;;;2.36;83.71;99024.44;78279;1298;3052981;-67
2024/01/27 03:03:44;;;;;;;19.10;8.60;;;;;;;2.01;83.59;99029.02;79252;1301;3013102;-73
2024/01/27 03:06:11;;;;;;;14.00;6.30;;;;;;;1.86;84.14;99028.98;79603;1300;3013289;-69
2024/01/27 03:08:39;;;;;;;14.70;6.30;;;;;;;1.61;84.21;99029.61;78347;1301;3028134;-76
2024/01/27 03:11:05;;;;;;;8.60;4.80;;;;;;;1.51;85.04;99024.90;79645;1297;3013000;-73
2024/01/27 03:13:32;;;;;;;14.30;6.00;;;;;;;1.26;85.99;99034.44;79510;1301;3011622;-70
2024/01/27 03:16:00;;;;;;;21.90;9.00;;;;;;;1.25;86.15;99031.53;78295;1298;3026010;-69
2024/01/27 03:18:27;;;;;;;16.10;8.40;;;;;;;1.01;87.19;99039.31;79316;1301;3011673;-73
2024/01/27 03:20:53;;;;;;;8.20;3.80;;;;;;;0.97;87.99;99037.71;79409;1311;3011485;-68
2024/01/27 03:23:21;;;;;;;6.00;4.00;;;;;;;1.48;87.62;99023.60;78138;1298;3028341;-64
2024/01/27 03:25:48;;;;;;;6.10;4.00;;;;;;;2.12;85.64;99022.26;79315;1298;3021374;-73
2024/01/27 03:28:16;;;;;;;6.80;4.40;;;;;;;2.19;84.40;99022.57;79025;1300;3012030;-73
2024/01/27 03:30:43;;;;;;;11.30;5.90;;;;;;;1.94;84.85;99024.59;78222;1298;3053654;-68
2024/01/27 03:33:12;;;;;;;12.40;6.70;;;;;;;1.69;85.82;99019.84;79278;1300;3013196;-67
2024/01/27 03:35:39;;;;;;;14.40;7.20;;;;;;;1.53;86.49;99025.88;79489;1301;3011982;-73
2024/01/27 03:38:07;;;;;;;13.10;6.00;;;;;;;1.28;87.30;99030.42;78021;1301;3069030;-73
2024/01/27 03:40:34;;;;;;;15.60;8.80;;;;;;;1.15;87.70;99034.08;79394;1299;3019255;-75
2024/01/27 03:43:00;;;;;;;20.00;10.00;;;;;;;0.89;88.96;99031.38;79333;1300;3011955;-73
2024/01/27 03:45:28;;;;;;;13.90;6.80;;;;;;;0.90;89.67;99030.30;78427;1300;3026628;-64
2024/01/27 03:47:55;;;;;;;19.00;9.40;;;;;;;1.42;89.47;99026.71;79556;1301;3020745;-65
2024/01/27 03:50:22;;;;;;;14.10;8.10;;;;;;;1.77;87.48;99027.21;79579;1301;3012994;-70
2024/01/27 03:52:50;;;;;;;15.80;9.20;;;;;;;1.96;86.93;99029.02;78032;1298;3027501;-70
2024/01/27 03:55:17;;;;;;;21.50;12.10;;;;;;;1.76;86.85;99032.09;79205;1298;3013551;-65
2024/01/27 03:57:44;;;;;;;23.30;12.40;;;;;;;1.69;87.60;99033.69;79179;1301;3011919;-70
2024/01/27 04:00:12;;;;;;;34.70;15.40;;;;;;;1.53;87.93;99036.42;78132;1299;3025994;-68
2024/01/27 04:02:39;;;;;;;42.60;18.40;;;;;;;1.29;88.70;99041.43;79798;1298;3014889;-68
2024/01/27 04:05:06;;;;;;;44.50;19.80;;;;;;;1.15;89.68;99047.20;79966;1300;3011452;-67
2024/01/27 04:07:34;;;;;;;54.60;21.30;;;;;;;1.09;90.28;99050.29;78895;1298;3068454;-66
2024/01/27 04:10:03;;;;;;;37.90;15.10;;;;;;;1.03;90.91;99047.00;79951;1297;3013149;-66
2024/01/27 04:12:29;;;;;;;35.70;15.10;;;;;;;1.58;90.67;99046.09;79723;1304;3011516;-63
2024/01/27 04:14:59;;;;;;;54.50;22.10;;;;;;;2.16;88.29;99049.81;78230;1301;3053224;-70
2024/01/27 04:17:26;;;;;;;67.40;25.90;;;;;;;2.17;87.02;99046.30;79437;1301;3011537;-65
2024/01/27 04:19:53;;;;;;;72.20;29.80;;;;;;;2.00;87.29;99052.91;79336;1301;3012009;-77
2024/01/27 04:22:20;;;;;;;68.60;28.70;;;;;;;1.82;87.68;99055.71;78001;1305;3068723;-62
2024/01/27 04:24:47;;;;;;;63.00;26.30;;;;;;;1.67;88.58;99060.34;79513;1303;3013503;-73
2024/01/27 04:27:14;;;;;;;60.40;26.20;;;;;;;1.57;88.67;99063.21;79461;1298;3013787;-72
2024/01/27 04:29:42;;;;;;;53.70;23.30;;;;;;;1.46;88.84;99064.92;78089;1298;3025948;-65
2024/01/27 04:32:10;;;;;;;39.80;16.60;;;;;;;1.38;89.45;99070.35;79429;1311;3013452;-66
2024/01/27 04:34:37;;;;;;;20.20;9.80;;;;;;;1.30;89.79;99073.33;79240;1303;3011615;-75
2024/01/27 04:37:05;;;;;;;16.00;8.60;;;;;;;1.71;89.58;99067.64;78106;1299;3067834;-67
2024/01/27 04:39:31;;;;;;;14.10;7.60;;;;;;;2.08;88.10;99065.09;79590;1301;3013295;-77
2024/01/27 04:41:58;;;;;;;14.00;7.60;;;;;;;2.08;87.42;99068.72;79495;1298;3013634;-76
2024/01/27 04:44:26;;;;;;;12.20;6.80;;;;;;;1.85;87.94;99068.23;78130;1302;3026433;-70
2024/01/27 04:46:53;;;;;;;11.10;6.70;;;;;;;1.63;89.13;99072.67;79375;1302;3013287;-73
2024/01/27 04:49:19;;;;;;;10.70;6.30;;;;;;;1.44;89.69;99076.19;79318;1298;3011737;-67
2024/01/27 04:51:47;;;;;;;9.10;5.80;;;;;;;1.29;90.52;99083.70;77926;1302;3068819;-77
2024/01/27 04:54:14;;;;;;;9.00;5.80;;;;;;;1.23;90.74;99093.55;79450;1298;3013072;-67
2024/01/27 04:56:40;;;;;;;8.40;5.20;;;;;;;1.08;91.39;99092.25;79558;1301;3013544;-70
2024/01/27 04:59:08;;;;;;;5.70;3.30;;;;;;;0.93;92.37;99095.41;78254;1301;3025997;-65
2024/01/27 05:01:35;;;;;;;6.90;4.10;;;;;;;1.40;92.18;99093.40;79410;1301;3013629;-77
2024/01/27 05:04:02;;;;;;;5.90;4.10;;;;;;;1.94;90.16;99089.38;79515;1300;3012063;-67
2024/01/27 05:06:30;;;;;;;7.30;4.90;;;;;;;2.04;88.81;99097.15;78198;1301;3025839;-69
2024/01/27 05:08:57;;;;;;;6.20;4.20;;;;;;;1.80;88.92;99092.02;79574;1301;3013184;-68
2024/01/27 05:11:33;;;;;;;7.50;4.90;;;;;;;1.77;89.18;99091.11;79220;1301;3011839;-73
2024/01/27 05:14:01;;;;;;;7.80;5.40;;;;;;;1.56;89.51;99101.73;78104;1300;3053214;-66
2024/01/27 05:16:27;;;;;;;13.80;6.90;;;;;;;1.39;90.13;99104.14;79476;1299;3012473;-66
2024/01/27 05:18:54;;;;;;;10.50;6.40;;;;;;;1.30;90.63;99104.05;79230;1301;3011877;-72
2024/01/27 05:21:23;;;;;;;7.20;4.60;;;;;;;1.25;91.20;99109.73;78334;1298;3026077;-78
2024/01/27 05:23:49;;;;;;;8.50;5.30;;;;;;;1.70;90.80;99105.29;79349;1301;3013632;-69
2024/01/27 05:26:15;;;;;;;10.40;5.90;;;;;;;2.29;88.82;99104.52;79353;1299;3011916;-69
2024/01/27 05:28:43;;;;;;;11.00;6.00;;;;;;;2.37;87.53;99110.83;78337;1310;3027050;-74
2024/01/27 05:31:10;;;;;;;10.90;6.50;;;;;;;2.21;87.49;99107.71;79421;1298;3013760;-75
2024/01/27 05:33:39;;;;;;;11.20;6.90;;;;;;;2.08;87.98;99112.60;79623;1299;3011453;-78
2024/01/27 05:36:07;;;;;;;10.10;6.40;;;;;;;1.98;88.37;99113.96;78216;1301;3067842;-73
2024/01/27 05:38:33;;;;;;;10.30;6.80;;;;;;;1.96;88.57;99117.64;79334;1301;3012952;-75
2024/01/27 05:41:03;;;;;;;10.60;7.20;;;;;;;1.82;88.53;99119.97;79215;1298;3011627;-73
2024/01/27 05:43:31;;;;;;;13.50;6.80;;;;;;;1.64;89.24;99118.77;78130;1300;3053702;-69
2024/01/27 05:45:58;;;;;;;10.20;4.60;;;;;;;1.54;89.73;99118.54;79317;1298;3013149;-69
2024/01/27 05:48:24;;;;;;;9.10;5.50;;;;;;;2.03;89.51;99118.63;79356;1301;3013203;-74
2024/01/27 05:50:59;;;;;;;11.90;6.20;;;;;;;2.61;87.21;99119.86;78293;1301;3026588;-67
2024/01/27 05:53:28;;;;;;;11.40;6.60;;;;;;;2.74;86.05;99121.83;78861;1298;3013458;-66
2024/01/27 05:55:55;;;;;;;9.40;5.60;;;;;;;2.51;85.92;99121.74;79488;1299;3012999;-73
2024/01/27 05:58:21;;;;;;;13.20;7.30;;;;;;;2.34;86.63;99118.00;79189;1301;3011541;-67
2024/01/27 06:00:49;;;;;;;11.60;6.80;;;;;;;2.09;87.37;99119.66;78419;1300;3026459;-71
2024/01/27 06:03:17;;;;;;;10.30;6.90;;;;;;;2.06;87.61;99121.11;79475;1301;3013203;-69
2024/01/27 06:05:43;;;;;;;13.50;7.90;;;;;;;1.85;88.29;99127.29;79471;1298;3013140;-72
2024/01/27 06:08:11;;;;;;;10.40;7.00;;;;;;;1.84;88.77;99129.73;78442;1300;3067534;-75
2024/01/27 06:10:38;;;;;;;12.30;7.20;;;;;;;1.77;88.95;99135.66;79348;1300;3013570;-74
2024/01/27 06:13:05;;;;;;;8.90;5.20;;;;;;;1.69;89.45;99137.77;79578;1301;3012108;-74
2024/01/27 06:15:34;;;;;;;11.10;6.40;;;;;;;2.31;88.89;99132.24;78338;1301;3026068;-68
2024/01/27 06:18:00;;;;;;;12.50;7.00;;;;;;;2.92;86.38;99133.00;79480;1298;3013470;-73
2024/01/27 06:20:27;;;;;;;12.70;7.80;;;;;;;2.96;85.09;99131.50;79286;1299;3011792;-72
2024/01/27 06:22:55;;;;;;;13.30;7.10;;;;;;;2.93;85.19;99132.83;78299;1300;3028430;-76
2024/01/27 06:25:21;;;;;;;12.40;7.50;;;;;;;2.69;85.46;99135.52;79524;1296;3013047;-74
2024/01/27 06:27:48;;;;;;;13.30;8.10;;;;;;;2.28;86.10;99138.75;79234;1301;3011629;-73
2024/01/27 06:30:17;;;;;;;14.90;8.50;;;;;;;2.02;87.56;99140.95;78534;1299;3027704;-71
2024/01/27 06:32:44;;;;;;;14.40;8.50;;;;;;;2.00;88.25;99146.18;79549;1301;3011454;-67
2024/01/27 06:35:11;;;;;;;19.00;10.20;;;;;;;1.89;88.86;99148.08;79341;1301;3011565;-68
2024/01/27 06:37:39;;;;;;;19.10;11.80;;;;;;;1.86;89.14;99150.60;78112;1301;3068966;-68
2024/01/27 06:40:08;;;;;;;13.90;7.60;;;;;;;1.76;89.55;99156.58;79480;1298;3013218;-69
2024/01/27 06:42:37;;;;;;;16.00;8.60;;;;;;;2.32;88.95;99149.16;79127;1296;3011493;-73
2024/01/27 06:45:04;;;;;;;19.30;9.20;;;;;;;2.68;86.37;99154.56;79509;1298;3018874;-65
2024/01/27 06:47:36;;;;;;;18.20;10.40;;;;;;;2.84;86.03;99147.46;78289;1300;3049456;-78
2024/01/27 06:50:03;;;;;;;15.60;8.70;;;;;;;2.82;85.76;99150.81;79666;1301;3013350;-66
2024/01/27 06:52:30;;;;;;;20.50;10.60;;;;;;;2.63;85.90;99150.93;79639;1301;3011957;-74
2024/01/27 06:54:58;;;;;;;18.90;10.50;;;;;;;2.56;85.91;99149.26;78196;1301;3051128;-74
2024/01/27 06:57:24;;;;;;;20.80;11.30;;;;;;;2.35;86.37;99150.81;79525;1296;3012708;-72
2024/01/27 06:59:55;;;;;;;23.70;11.40;;;;;;;2.13;87.07;99149.06;79415;1299;3011888;-72
2024/01/27 07:02:26;;;;;;;20.60;11.10;;;;;;;2.13;87.59;99150.63;78298;1300;3050384;-69
2024/01/27 07:04:53;;;;;;;21.40;11.20;;;;;;;2.10;87.45;99153.31;79543;1301;3011399;-62
2024/01/27 07:07:24;;;;;;;13.70;7.30;;;;;;;1.92;88.39;99153.16;79111;1297;3011633;-66
2024/01/27 07:09:51;;;;;;;15.60;8.60;;;;;;;2.31;88.50;99154.90;79522;1300;3013563;-73
2024/01/27 07:12:18;;;;;;;16.60;9.10;;;;;;;2.74;86.57;99155.07;79482;1297;3011658;-70
2024/01/27 07:14:46;;;;;;;18.60;10.70;;;;;;;2.88;85.79;99156.84;78041;1301;3049232;-66
2024/01/27 07:17:13;;;;;;;18.10;9.60;;;;;;;2.89;85.69;99158.37;79481;1301;3013055;-70
2024/01/27 07:19:39;;;;;;;19.80;10.80;;;;;;;2.76;85.78;99162.28;79326;1301;3012400;-72
2024/01/27 07:22:07;;;;;;;22.00;12.00;;;;;;;2.68;85.99;99161.48;78353;1300;3027692;-66
2024/01/27 07:24:34;;;;;;;20.70;11.00;;;;;;;2.72;86.29;99160.86;79480;1301;3012846;-68
2024/01/27 07:27:01;;;;;;;26.30;12.80;;;;;;;2.66;86.12;99164.34;79322;1295;3011481;-69
2024/01/27 07:29:29;;;;;;;23.80;11.40;;;;;;;2.59;85.93;99168.37;78167;1301;3026542;-65
2024/01/27 07:31:56;;;;;;;28.30;13.10;;;;;;;2.58;86.28;99168.23;79376;1299;3013826;-66
2024/01/27 07:34:22;;;;;;;48.60;20.30;;;;;;;2.44;86.26;99167.44;79427;1301;3011500;-67
2024/01/27 07:36:50;;;;;;;45.30;18.20;;;;;;;2.11;87.39;99165.38;78316;1297;3028289;-66
2024/01/27 07:39:17;;;;;;;47.90;18.00;;;;;;;2.47;87.42;99163.03;79256;1300;3013276;-67
2024/01/27 07:41:43;;;;;;;49.90;21.10;;;;;;;2.94;85.80;99166.17;79371;1298;3013225;-68
2024/01/27 07:44:14;;;;;;;40.20;19.10;;;;;;;3.25;84.91;99167.17;78179;1300;3026338;-64
2024/01/27 07:46:41;;;;;;;44.60;19.30;;;;;;;3.11;84.53;99170.60;79435;1300;3011375;-69
2024/01/27 07:49:12;;;;;;;48.10;21.70;;;;;;;3.07;84.92;99170.73;78733;1301;3013498;-67
2024/01/27 07:51:40;;;;;;;45.70;20.30;;;;;;;2.94;85.20;99176.36;79495;1299;3013262;-66
2024/01/27 07:54:10;;;;;;;48.40;20.40;;;;;;;2.97;85.74;99176.43;79075;1301;3011537;-66
2024/01/27 07:56:37;;;;;;;68.40;28.10;;;;;;;2.81;85.97;99179.22;79578;1298;3013705;-72
2024/01/27 07:59:04;;;;;;;63.90;25.70;;;;;;;2.76;86.11;99176.99;79390;1297;3011506;-67
2024/01/27 08:01:32;;;;;;;67.10;29.10;;;;;;;2.64;86.50;99178.22;78080;1301;3049475;-71
2024/01/27 08:03:58;;;;;;;71.40;26.50;;;;;;;2.73;86.40;99177.41;79439;1298;3013349;-67
2024/01/27 08:06:31;;;;;;;70.20;23.70;;;;;;;2.78;86.57;99178.80;79381;1300;3013182;-70
2024/01/27 08:09:00;;;;;;;66.10;25.10;;;;;;;3.28;85.54;99180.72;78147;1301;3051953;-64
2024/01/27 08:11:27;;;;;;;61.30;21.80;;;;;;;3.96;83.29;99184.86;79312;1298;3014948;-69
2024/01/27 08:13:54;;;;;;;76.00;27.90;;;;;;;3.97;81.71;99188.09;79584;1296;3011838;-70
2024/01/27 08:16:22;;;;;;;65.80;25.70;;;;;;;3.80;81.47;99186.30;78250;1300;3048949;-70
2024/01/27 08:18:48;;;;;;;71.20;27.90;;;;;;;3.61;81.89;99187.02;79477;1297;3013152;-71
2024/01/27 08:21:15;;;;;;;60.70;25.80;;;;;;;3.41;81.91;99191.53;79415;1299;3011932;-67
2024/01/27 08:23:45;;;;;;;54.70;23.10;;;;;;;3.33;82.58;99190.60;78464;1301;3028506;-68
2024/01/27 08:26:12;;;;;;;50.20;20.20;;;;;;;3.35;83.30;99191.04;79550;1296;3013015;-72
2024/01/27 08:28:38;;;;;;;53.10;22.40;;;;;;;3.37;83.03;99191.17;79586;1297;3011413;-71
2024/01/27 08:31:06;;;;;;;67.70;24.40;;;;;;;3.26;82.97;99192.42;78180;1297;3048826;-69
2024/01/27 08:33:33;;;;;;;59.00;24.60;;;;;;;2.90;83.89;99197.10;79387;1297;3013224;-68
2024/01/27 08:36:00;;;;;;;71.70;26.20;;;;;;;2.68;84.76;99201.09;79563;1300;3011690;-77
2024/01/27 08:38:27;;;;;;;63.60;25.90;;;;;;;2.74;85.34;99202.98;78349;1301;3027093;-74
2024/01/27 08:40:54;;;;;;;59.50;24.00;;;;;;;2.88;85.41;99197.35;79463;1297;3018684;-71
2024/01/27 08:43:20;;;;;;;48.90;19.00;;;;;;;2.86;85.16;99201.36;79442;1300;3011454;-72
2024/01/27 08:45:48;;;;;;;57.90;24.10;;;;;;;3.41;84.16;99198.98;78252;1299;3029028;-66
2024/01/27 08:48:16;;;;;;;62.20;26.40;;;;;;;3.98;82.08;99198.09;79598;1299;3018370;-68
2024/01/27 08:50:42;;;;;;;61.90;25.80;;;;;;;4.00;81.41;99201.00;79408;1300;3011609;-65
2024/01/27 08:53:10;;;;;;;53.00;24.40;;;;;;;3.75;81.22;99193.94;78284;1297;3051726;-65
2024/01/27 08:55:40;;;;;;;77.90;33.10;;;;;;;3.47;81.70;99195.30;79401;1300;3019287;-69
2024/01/27 08:58:09;;;;;;;76.20;32.10;;;;;;;3.26;82.79;99189.45;79223;1297;3011824;-65
2024/01/27 09:00:37;;;;;;;68.50;29.00;;;;;;;3.20;83.43;99186.55;79672;1300;3018712;-68
2024/01/27 09:03:22;;;;;;;62.10;26.40;;;;;;;3.08;83.56;99188.88;80640;1288;3011619;-64
2024/01/27 09:05:51;;;;;;;55.90;25.50;;;;;;;3.05;83.84;99183.27;77683;1306;3050988;-60
2024/01/27 09:08:17;;;;;;;52.90;24.80;;;;;;;2.96;84.35;99183.73;78991;1306;3013421;-61
2024/01/27 09:10:45;;;;;;;61.90;25.10;;;;;;;2.95;84.80;99186.40;79073;1306;3011956;-62
2024/01/27 09:13:13;;;;;;;50.70;22.70;;;;;;;3.03;84.98;99195.29;79437;1302;3051736;-62
2024/01/27 09:15:40;;;;;;;45.80;20.70;;;;;;;2.80;84.65;99193.45;79242;1302;3018574;-61
2024/01/27 09:18:07;;;;;;;59.70;25.00;;;;;;;2.79;84.81;99193.48;79890;1302;3011798;-61
2024/01/27 09:20:35;;;;;;;44.30;18.20;;;;;;;2.63;85.33;99197.64;80265;1303;3025857;-63
2024/01/27 09:23:01;;;;;;;36.00;16.10;;;;;;;3.23;84.83;99193.02;79382;1306;3013745;-59
2024/01/27 09:25:29;;;;;;;36.60;16.50;;;;;;;3.91;82.07;99196.48;78839;1304;3011695;-64
2024/01/27 09:28:00;;;;;;;41.40;20.30;;;;;;;3.95;80.84;99198.40;78035;1302;3051491;-66
2024/01/27 09:30:27;;;;;;;42.50;20.40;;;;;;;4.02;80.79;99201.27;79229;1306;3011951;-66
2024/01/27 09:32:57;;;;;;;48.80;23.10;;;;;;;3.89;79.88;99207.82;78512;1303;3011517;-67
2024/01/27 09:35:24;;;;;;;55.70;23.80;;;;;;;3.66;79.88;99206.38;79245;1305;3013264;-64
2024/01/27 09:37:52;;;;;;;57.10;25.40;;;;;;;3.66;80.00;99206.39;79163;1303;3011674;-65
2024/01/27 09:40:20;;;;;;;54.00;23.60;;;;;;;3.69;80.12;99205.75;77880;1303;3052082;-66
2024/01/27 09:42:53;;;;;;;50.10;23.60;;;;;;;3.65;80.10;99208.17;79047;1302;3012934;-64
2024/01/27 09:45:22;;;;;;;47.00;22.90;;;;;;;3.71;80.10;99203.96;77714;1306;3057186;-67
2024/01/27 09:47:49;;;;;;;63.80;28.50;;;;;;;3.77;79.74;99207.55;79103;1303;3013265;-68
2024/01/27 09:50:16;;;;;;;69.90;31.50;;;;;;;3.78;78.89;99207.52;79162;1306;3012322;-67
2024/01/27 09:52:44;;;;;;;55.80;27.20;;;;;;;3.79;78.97;99210.27;77811;1309;3052935;-65
2024/01/27 09:55:12;;;;;;;53.80;24.90;;;;;;;3.78;78.89;99211.67;79224;1306;3013971;-66
2024/01/27 09:57:39;;;;;;;53.70;25.50;;;;;;;3.82;79.10;99206.17;79047;1302;3011660;-68
2024/01/27 10:00:11;;;;;;;53.20;25.10;;;;;;;3.93;79.16;99210.11;78300;1306;3055897;-66
2024/01/27 10:02:40;;;;;;;44.40;23.20;;;;;;;4.05;78.23;99213.11;79281;1302;3011717;-65
2024/01/27 10:05:11;;;;;;;46.60;24.00;;;;;;;4.00;77.31;99210.16;78089;1305;3053450;-65
2024/01/27 10:07:37;;;;;;;50.40;24.00;;;;;;;3.78;77.22;99212.38;78744;1305;3011722;-63
2024/01/27 10:10:07;;;;;;;48.10;24.50;;;;;;;3.55;77.91;99214.75;78539;1301;3011391;-65
2024/01/27 10:12:37;;;;;;;49.20;25.60;;;;;;;3.70;78.35;99216.66;79117;1306;3013493;-63
2024/01/27 10:15:05;;;;;;;49.40;24.80;;;;;;;3.76;78.02;99216.96;77673;1308;3051683;-63
2024/01/27 10:17:36;;;;;;;46.90;24.00;;;;;;;3.74;77.57;99217.02;79021;1303;3013100;-62
2024/01/27 10:20:05;;;;;;;40.00;20.30;;;;;;;3.71;77.66;99216.25;77655;1303;3053374;-61
2024/01/27 10:22:42;;;;;;;38.60;20.50;;;;;;;3.76;77.91;99215.90;79027;1306;3013404;-62
2024/01/27 10:25:10;;;;;;;25.70;13.20;;;;;;;3.82;76.35;99216.05;77697;1306;3052995;-64
2024/01/27 10:27:37;;;;;;;24.60;13.40;;;;;;;3.84;75.30;99216.66;79292;1304;3013298;-68
2024/01/27 10:30:04;;;;;;;23.90;13.50;;;;;;;3.87;75.66;99216.71;79180;1303;3011517;-64
2024/01/27 10:32:32;;;;;;;26.10;15.10;;;;;;;3.77;75.80;99220.03;77943;1302;3056575;-68
2024/01/27 10:35:05;;;;;;;23.60;13.60;;;;;;;3.88;76.01;99222.08;79062;1306;3012935;-68
2024/01/27 10:37:33;;;;;;;25.80;13.40;;;;;;;3.87;76.11;99216.36;77922;1307;3050599;-66
2024/01/27 10:40:03;;;;;;;22.70;12.90;;;;;;;3.97;76.11;99222.23;79100;1307;3013038;-67
2024/01/27 10:42:32;;;;;;;21.30;11.80;;;;;;;3.91;75.22;99223.16;77852;1306;3068579;-66
2024/01/27 10:45:02;;;;;;;23.40;13.40;;;;;;;3.87;75.56;99223.45;79458;1302;3012735;-66
2024/01/27 10:47:33;;;;;;;23.60;13.40;;;;;;;4.03;75.80;99226.33;78657;1303;3011884;-69
2024/01/27 10:50:00;;;;;;;24.20;14.30;;;;;;;4.14;75.53;99226.11;79173;1303;3013235;-69
2024/01/27 10:52:33;;;;;;;21.80;13.60;;;;;;;4.17;75.10;99229.14;79174;1303;3011417;-67
2024/01/27 10:55:03;;;;;;;24.10;14.10;;;;;;;4.11;75.03;99227.27;77809;1306;3052277;-66
2024/01/27 10:57:30;;;;;;;27.40;13.90;;;;;;;4.04;75.35;99228.23;79258;1303;3011567;-68
2024/01/27 10:59:57;;;;;;;27.10;14.60;;;;;;;4.09;75.77;99229.42;79009;1304;3011754;-67
2024/01/27 11:02:25;;;;;;;30.50;15.30;;;;;;;4.13;75.71;99230.64;78069;1303;3055849;-66
2024/01/27 11:04:55;;;;;;;27.30;14.80;;;;;;;4.22;75.72;99233.79;79157;1303;3012448;-68
2024/01/27 11:07:24;;;;;;;31.00;17.40;;;;;;;4.18;75.48;99233.77;78469;1306;3011836;-67
2024/01/27 11:09:51;;;;;;;31.20;17.40;;;;;;;4.15;75.93;99236.29;79112;1303;3013101;-68
2024/01/27 11:12:19;;;;;;;31.50;17.10;;;;;;;4.10;76.11;99236.30;79129;1306;3011923;-67
2024/01/27 11:14:48;;;;;;;33.50;18.70;;;;;;;3.99;76.72;99241.08;78416;1304;3068332;-67
2024/01/27 11:17:16;;;;;;;37.90;19.50;;;;;;;3.93;77.08;99246.64;79151;1302;3012924;-68